sensor_id;sensor_type;location;lat;lon;timestamp;P1;durP1;ratioP1;P2;durP2;ratioP2
42226;SDS011;27892;52.378;13.122;2023-04-07T00:00:57;3.30;;;2.90;;
42226;SDS011;27892;52.378;13.122;2023-04-07T00:03:23;5.53;;;3.87;;
42226;SDS011;27892;52.378;13.122;2023-04-07T00:05:50;4.73;;;4.23;;
42226;SDS011;27892;52.378;13.122;2023-04-07T00:08:15;5.90;;;4.57;;
42226;SDS011;27892;52.378;13.122;2023-04-07T00:10:41;6.57;;;4.83;;
42226;SDS011;27892;52.378;13.122;2023-04-07T00:13:07;6.47;;;4.53;;
42226;SDS011;27892;52.378;13.122;2023-04-07T00:15:32;6.23;;;4.87;;
42226;SDS011;27892;52.378;13.122;2023-04-07T00:17:58;5.60;;;4.00;;
42226;SDS011;27892;52.378;13.122;2023-04-07T00:20:24;4.47;;;4.03;;
42226;SDS011;27892;52.378;13.122;2023-04-07T00:22:50;3.73;;;3.30;;
42226;SDS011;27892;52.378;13.122;2023-04-07T00:25:15;3.37;;;2.93;;
42226;SDS011;27892;52.378;13.122;2023-04-07T00:27:41;4.30;;;3.37;;
42226;SDS011;27892;52.378;13.122;2023-04-07T00:30:07;3.93;;;3.53;;
42226;SDS011;27892;52.378;13.122;2023-04-07T00:32:32;3.50;;;2.90;;
42226;SDS011;27892;52.378;13.122;2023-04-07T00:34:58;3.27;;;2.97;;
42226;SDS011;27892;52.378;13.122;2023-04-07T00:37:27;4.23;;;3.57;;
42226;SDS011;27892;52.378;13.122;2023-04-07T00:39:53;3.43;;;2.73;;
42226;SDS011;27892;52.378;13.122;2023-04-07T00:42:18;3.60;;;3.10;;
42226;SDS011;27892;52.378;13.122;2023-04-07T00:44:44;3.63;;;2.87;;
42226;SDS011;27892;52.378;13.122;2023-04-07T00:47:10;2.70;;;2.50;;
42226;SDS011;27892;52.378;13.122;2023-04-07T00:49:36;2.93;;;2.73;;
42226;SDS011;27892;52.378;13.122;2023-04-07T00:52:02;3.10;;;2.80;;
42226;SDS011;27892;52.378;13.122;2023-04-07T00:54:30;3.60;;;3.30;;
42226;SDS011;27892;52.378;13.122;2023-04-07T00:56:56;3.60;;;3.30;;
42226;SDS011;27892;52.378;13.122;2023-04-07T00:59:22;5.07;;;4.07;;
42226;SDS011;27892;52.378;13.122;2023-04-07T01:01:57;5.90;;;4.57;;
42226;SDS011;27892;52.378;13.122;2023-04-07T01:04:32;8.67;;;6.67;;
42226;SDS011;27892;52.378;13.122;2023-04-07T01:07:08;6.87;;;5.53;;
42226;SDS011;27892;52.378;13.122;2023-04-07T01:09:46;7.17;;;5.60;;
42226;SDS011;27892;52.378;13.122;2023-04-07T01:15:24;6.20;;;4.93;;
42226;SDS011;27892;52.378;13.122;2023-04-07T01:18:16;6.70;;;5.00;;
42226;SDS011;27892;52.378;13.122;2023-04-07T01:20:44;5.50;;;4.63;;
42226;SDS011;27892;52.378;13.122;2023-04-07T01:23:16;6.07;;;4.50;;
42226;SDS011;27892;52.378;13.122;2023-04-07T01:31:25;6.00;;;4.77;;
42226;SDS011;27892;52.378;13.122;2023-04-07T01:33:52;6.70;;;5.47;;
42226;SDS011;27892;52.378;13.122;2023-04-07T01:36:20;5.63;;;4.97;;
42226;SDS011;27892;52.378;13.122;2023-04-07T01:38:46;4.53;;;4.10;;
42226;SDS011;27892;52.378;13.122;2023-04-07T01:41:14;5.13;;;4.07;;
42226;SDS011;27892;52.378;13.122;2023-04-07T01:43:41;4.57;;;3.80;;
42226;SDS011;27892;52.378;13.122;2023-04-07T01:46:07;4.17;;;3.60;;
42226;SDS011;27892;52.378;13.122;2023-04-07T01:48:33;5.37;;;3.83;;
42226;SDS011;27892;52.378;13.122;2023-04-07T01:51:00;4.07;;;3.67;;
42226;SDS011;27892;52.378;13.122;2023-04-07T01:53:28;5.47;;;3.87;;
42226;SDS011;27892;52.378;13.122;2023-04-07T01:55:55;4.07;;;3.67;;
42226;SDS011;27892;52.378;13.122;2023-04-07T01:58:20;5.23;;;4.30;;
42226;SDS011;27892;52.378;13.122;2023-04-07T02:00:47;5.23;;;4.20;;
42226;SDS011;27892;52.378;13.122;2023-04-07T02:03:23;5.40;;;4.50;;
42226;SDS011;27892;52.378;13.122;2023-04-07T02:06:58;6.57;;;4.80;;
42226;SDS011;27892;52.378;13.122;2023-04-07T02:09:47;7.67;;;5.50;;
42226;SDS011;27892;52.378;13.122;2023-04-07T02:12:34;5.90;;;4.63;;
42226;SDS011;27892;52.378;13.122;2023-04-07T02:15:22;5.23;;;4.30;;
42226;SDS011;27892;52.378;13.122;2023-04-07T02:17:50;8.17;;;5.83;;
42226;SDS011;27892;52.378;13.122;2023-04-07T02:20:17;9.77;;;7.07;;
42226;SDS011;27892;52.378;13.122;2023-04-07T02:22:44;9.97;;;6.67;;
42226;SDS011;27892;52.378;13.122;2023-04-07T02:25:28;7.87;;;6.00;;
42226;SDS011;27892;52.378;13.122;2023-04-07T02:27:56;6.73;;;5.53;;
42226;SDS011;27892;52.378;13.122;2023-04-07T02:30:23;5.60;;;4.97;;
42226;SDS011;27892;52.378;13.122;2023-04-07T02:32:50;6.80;;;6.00;;
42226;SDS011;27892;52.378;13.122;2023-04-07T02:35:16;9.13;;;5.93;;
42226;SDS011;27892;52.378;13.122;2023-04-07T02:37:42;6.27;;;4.60;;
42226;SDS011;27892;52.378;13.122;2023-04-07T02:40:08;6.20;;;5.00;;
42226;SDS011;27892;52.378;13.122;2023-04-07T02:42:34;5.57;;;4.70;;
42226;SDS011;27892;52.378;13.122;2023-04-07T02:45:03;8.33;;;5.90;;
42226;SDS011;27892;52.378;13.122;2023-04-07T02:47:30;7.53;;;5.53;;
42226;SDS011;27892;52.378;13.122;2023-04-07T02:49:56;10.70;;;7.00;;
42226;SDS011;27892;52.378;13.122;2023-04-07T02:52:21;9.20;;;6.10;;
42226;SDS011;27892;52.378;13.122;2023-04-07T02:54:47;8.60;;;5.23;;
42226;SDS011;27892;52.378;13.122;2023-04-07T02:57:13;5.10;;;4.60;;
42226;SDS011;27892;52.378;13.122;2023-04-07T02:59:39;5.80;;;4.47;;
42226;SDS011;27892;52.378;13.122;2023-04-07T03:02:05;6.60;;;4.67;;
42226;SDS011;27892;52.378;13.122;2023-04-07T03:04:31;7.43;;;5.20;;
42226;SDS011;27892;52.378;13.122;2023-04-07T03:06:56;4.00;;;3.60;;
42226;SDS011;27892;52.378;13.122;2023-04-07T03:09:22;5.20;;;4.30;;
42226;SDS011;27892;52.378;13.122;2023-04-07T03:11:48;4.67;;;4.17;;
42226;SDS011;27892;52.378;13.122;2023-04-07T03:14:14;5.10;;;4.43;;
42226;SDS011;27892;52.378;13.122;2023-04-07T03:16:40;4.27;;;3.87;;
42226;SDS011;27892;52.378;13.122;2023-04-07T03:19:06;6.50;;;4.20;;
42226;SDS011;27892;52.378;13.122;2023-04-07T03:21:33;3.73;;;3.30;;
42226;SDS011;27892;52.378;13.122;2023-04-07T03:23:59;4.60;;;4.00;;
42226;SDS011;27892;52.378;13.122;2023-04-07T03:26:24;5.43;;;4.03;;
42226;SDS011;27892;52.378;13.122;2023-04-07T03:28:50;5.37;;;4.70;;
42226;SDS011;27892;52.378;13.122;2023-04-07T03:31:16;6.53;;;5.30;;
42226;SDS011;27892;52.378;13.122;2023-04-07T03:33:41;7.40;;;5.50;;
42226;SDS011;27892;52.378;13.122;2023-04-07T03:36:07;6.97;;;5.00;;
42226;SDS011;27892;52.378;13.122;2023-04-07T03:38:33;6.17;;;4.77;;
42226;SDS011;27892;52.378;13.122;2023-04-07T03:40:58;5.07;;;4.47;;
42226;SDS011;27892;52.378;13.122;2023-04-07T03:43:24;4.47;;;4.00;;
42226;SDS011;27892;52.378;13.122;2023-04-07T03:45:51;5.13;;;4.40;;
42226;SDS011;27892;52.378;13.122;2023-04-07T03:48:18;5.80;;;4.70;;
42226;SDS011;27892;52.378;13.122;2023-04-07T03:50:44;6.90;;;5.07;;
42226;SDS011;27892;52.378;13.122;2023-04-07T03:53:10;6.47;;;5.17;;
42226;SDS011;27892;52.378;13.122;2023-04-07T03:55:37;7.50;;;5.60;;
42226;SDS011;27892;52.378;13.122;2023-04-07T03:58:03;7.00;;;5.20;;
42226;SDS011;27892;52.378;13.122;2023-04-07T04:00:29;5.63;;;4.23;;
42226;SDS011;27892;52.378;13.122;2023-04-07T04:02:57;4.80;;;4.30;;
42226;SDS011;27892;52.378;13.122;2023-04-07T04:05:23;5.43;;;4.60;;
42226;SDS011;27892;52.378;13.122;2023-04-07T04:07:49;5.20;;;4.40;;
42226;SDS011;27892;52.378;13.122;2023-04-07T04:10:18;4.90;;;4.40;;
42226;SDS011;27892;52.378;13.122;2023-04-07T04:12:45;6.23;;;4.83;;
42226;SDS011;27892;52.378;13.122;2023-04-07T04:15:11;8.80;;;5.70;;
42226;SDS011;27892;52.378;13.122;2023-04-07T04:17:37;7.13;;;5.50;;
42226;SDS011;27892;52.378;13.122;2023-04-07T04:20:03;6.30;;;5.63;;
42226;SDS011;27892;52.378;13.122;2023-04-07T04:22:29;6.80;;;5.37;;
42226;SDS011;27892;52.378;13.122;2023-04-07T04:24:55;6.60;;;5.13;;
42226;SDS011;27892;52.378;13.122;2023-04-07T04:27:21;5.80;;;4.77;;
42226;SDS011;27892;52.378;13.122;2023-04-07T04:29:46;6.37;;;4.90;;
42226;SDS011;27892;52.378;13.122;2023-04-07T04:32:13;5.90;;;5.20;;
42226;SDS011;27892;52.378;13.122;2023-04-07T04:34:38;6.50;;;5.10;;
42226;SDS011;27892;52.378;13.122;2023-04-07T04:37:06;4.80;;;4.30;;
42226;SDS011;27892;52.378;13.122;2023-04-07T04:39:32;5.63;;;4.30;;
42226;SDS011;27892;52.378;13.122;2023-04-07T04:41:58;7.67;;;5.20;;
42226;SDS011;27892;52.378;13.122;2023-04-07T04:44:23;4.30;;;3.90;;
42226;SDS011;27892;52.378;13.122;2023-04-07T04:46:49;6.83;;;5.77;;
42226;SDS011;27892;52.378;13.122;2023-04-07T04:49:16;7.87;;;5.83;;
42226;SDS011;27892;52.378;13.122;2023-04-07T04:51:43;6.40;;;5.10;;
42226;SDS011;27892;52.378;13.122;2023-04-07T04:54:09;6.50;;;5.50;;
42226;SDS011;27892;52.378;13.122;2023-04-07T04:56:35;5.77;;;4.67;;
42226;SDS011;27892;52.378;13.122;2023-04-07T04:59:01;4.53;;;4.00;;
42226;SDS011;27892;52.378;13.122;2023-04-07T05:01:27;6.97;;;4.80;;
42226;SDS011;27892;52.378;13.122;2023-04-07T05:03:53;5.23;;;3.93;;
42226;SDS011;27892;52.378;13.122;2023-04-07T05:06:19;5.73;;;4.63;;
42226;SDS011;27892;52.378;13.122;2023-04-07T05:08:45;6.67;;;4.53;;
42226;SDS011;27892;52.378;13.122;2023-04-07T05:11:11;5.63;;;4.40;;
42226;SDS011;27892;52.378;13.122;2023-04-07T05:13:36;4.77;;;4.07;;
42226;SDS011;27892;52.378;13.122;2023-04-07T05:16:02;5.67;;;4.13;;
42226;SDS011;27892;52.378;13.122;2023-04-07T05:18:28;7.80;;;5.27;;
42226;SDS011;27892;52.378;13.122;2023-04-07T05:20:54;8.57;;;5.90;;
42226;SDS011;27892;52.378;13.122;2023-04-07T05:23:19;9.03;;;6.30;;
42226;SDS011;27892;52.378;13.122;2023-04-07T05:25:45;9.87;;;6.10;;
42226;SDS011;27892;52.378;13.122;2023-04-07T05:28:11;8.83;;;6.33;;
42226;SDS011;27892;52.378;13.122;2023-04-07T05:30:36;7.23;;;5.97;;
42226;SDS011;27892;52.378;13.122;2023-04-07T05:33:02;7.80;;;5.67;;
42226;SDS011;27892;52.378;13.122;2023-04-07T05:35:28;7.20;;;5.90;;
42226;SDS011;27892;52.378;13.122;2023-04-07T05:37:53;8.53;;;6.67;;
42226;SDS011;27892;52.378;13.122;2023-04-07T05:40:19;7.97;;;6.50;;
42226;SDS011;27892;52.378;13.122;2023-04-07T05:42:45;8.40;;;6.47;;
42226;SDS011;27892;52.378;13.122;2023-04-07T05:45:10;9.07;;;6.53;;
42226;SDS011;27892;52.378;13.122;2023-04-07T05:47:36;9.10;;;6.77;;
42226;SDS011;27892;52.378;13.122;2023-04-07T05:50:02;8.17;;;5.43;;
42226;SDS011;27892;52.378;13.122;2023-04-07T05:52:28;5.47;;;4.90;;
42226;SDS011;27892;52.378;13.122;2023-04-07T05:54:53;6.13;;;5.03;;
42226;SDS011;27892;52.378;13.122;2023-04-07T05:57:19;5.50;;;5.00;;
42226;SDS011;27892;52.378;13.122;2023-04-07T05:59:45;6.20;;;4.47;;
42226;SDS011;27892;52.378;13.122;2023-04-07T06:02:11;5.73;;;4.40;;
42226;SDS011;27892;52.378;13.122;2023-04-07T06:04:37;4.40;;;4.00;;
42226;SDS011;27892;52.378;13.122;2023-04-07T06:07:03;4.23;;;3.83;;
42226;SDS011;27892;52.378;13.122;2023-04-07T06:09:29;3.57;;;3.27;;
42226;SDS011;27892;52.378;13.122;2023-04-07T06:11:55;3.53;;;3.23;;
42226;SDS011;27892;52.378;13.122;2023-04-07T06:14:21;3.80;;;3.50;;
42226;SDS011;27892;52.378;13.122;2023-04-07T06:16:47;3.90;;;3.43;;
42226;SDS011;27892;52.378;13.122;2023-04-07T06:19:13;3.60;;;3.30;;
42226;SDS011;27892;52.378;13.122;2023-04-07T06:21:38;3.63;;;3.33;;
42226;SDS011;27892;52.378;13.122;2023-04-07T06:24:04;3.90;;;3.50;;
42226;SDS011;27892;52.378;13.122;2023-04-07T06:26:31;4.67;;;4.00;;
42226;SDS011;27892;52.378;13.122;2023-04-07T06:28:57;5.40;;;4.57;;
42226;SDS011;27892;52.378;13.122;2023-04-07T06:31:31;7.50;;;5.13;;
42226;SDS011;27892;52.378;13.122;2023-04-07T06:33:56;7.27;;;5.10;;
42226;SDS011;27892;52.378;13.122;2023-04-07T06:36:22;5.40;;;4.60;;
42226;SDS011;27892;52.378;13.122;2023-04-07T06:38:48;6.67;;;5.37;;
42226;SDS011;27892;52.378;13.122;2023-04-07T06:41:14;7.07;;;5.50;;
42226;SDS011;27892;52.378;13.122;2023-04-07T06:43:50;6.60;;;5.50;;
42226;SDS011;27892;52.378;13.122;2023-04-07T06:46:16;7.47;;;5.77;;
42226;SDS011;27892;52.378;13.122;2023-04-07T06:48:42;6.70;;;5.60;;
42226;SDS011;27892;52.378;13.122;2023-04-07T06:51:07;7.47;;;5.70;;
42226;SDS011;27892;52.378;13.122;2023-04-07T06:53:33;7.87;;;6.20;;
42226;SDS011;27892;52.378;13.122;2023-04-07T06:56:06;7.80;;;6.10;;
42226;SDS011;27892;52.378;13.122;2023-04-07T06:58:36;7.13;;;5.63;;
42226;SDS011;27892;52.378;13.122;2023-04-07T07:01:02;8.60;;;5.60;;
42226;SDS011;27892;52.378;13.122;2023-04-07T07:03:28;5.87;;;5.27;;
42226;SDS011;27892;52.378;13.122;2023-04-07T07:05:55;5.70;;;4.70;;
42226;SDS011;27892;52.378;13.122;2023-04-07T07:08:24;5.55;;;4.90;;
42226;SDS011;27892;52.378;13.122;2023-04-07T07:10:51;4.25;;;3.50;;
42226;SDS011;27892;52.378;13.122;2023-04-07T07:13:17;5.22;;;4.40;;
42226;SDS011;27892;52.378;13.122;2023-04-07T07:15:43;6.43;;;4.50;;
42226;SDS011;27892;52.378;13.122;2023-04-07T07:18:10;6.45;;;4.63;;
42226;SDS011;27892;52.378;13.122;2023-04-07T07:20:36;6.03;;;5.10;;
42226;SDS011;27892;52.378;13.122;2023-04-07T07:23:01;6.50;;;4.63;;
42226;SDS011;27892;52.378;13.122;2023-04-07T07:25:27;5.20;;;4.70;;
42226;SDS011;27892;52.378;13.122;2023-04-07T07:27:53;6.35;;;5.07;;
42226;SDS011;27892;52.378;13.122;2023-04-07T07:30:19;6.93;;;4.80;;
42226;SDS011;27892;52.378;13.122;2023-04-07T07:32:45;5.53;;;4.60;;
42226;SDS011;27892;52.378;13.122;2023-04-07T07:35:11;5.85;;;4.20;;
42226;SDS011;27892;52.378;13.122;2023-04-07T07:37:37;4.88;;;3.95;;
42226;SDS011;27892;52.378;13.122;2023-04-07T07:40:03;4.95;;;4.35;;
42226;SDS011;27892;52.378;13.122;2023-04-07T07:42:29;6.68;;;4.07;;
42226;SDS011;27892;52.378;13.122;2023-04-07T07:44:55;5.28;;;4.00;;
42226;SDS011;27892;52.378;13.122;2023-04-07T07:47:21;5.22;;;3.72;;
42226;SDS011;27892;52.378;13.122;2023-04-07T07:49:47;4.47;;;3.33;;
42226;SDS011;27892;52.378;13.122;2023-04-07T07:52:13;6.93;;;4.88;;
42226;SDS011;27892;52.378;13.122;2023-04-07T07:54:39;5.17;;;4.33;;
42226;SDS011;27892;52.378;13.122;2023-04-07T07:57:05;5.60;;;4.57;;
42226;SDS011;27892;52.378;13.122;2023-04-07T07:59:31;5.53;;;4.43;;
42226;SDS011;27892;52.378;13.122;2023-04-07T08:01:57;5.63;;;4.33;;
42226;SDS011;27892;52.378;13.122;2023-04-07T08:04:23;5.07;;;3.67;;
42226;SDS011;27892;52.378;13.122;2023-04-07T08:06:49;5.73;;;3.93;;
42226;SDS011;27892;52.378;13.122;2023-04-07T08:09:16;4.30;;;3.80;;
42226;SDS011;27892;52.378;13.122;2023-04-07T08:11:42;5.90;;;4.23;;
42226;SDS011;27892;52.378;13.122;2023-04-07T08:14:08;5.77;;;4.47;;
42226;SDS011;27892;52.378;13.122;2023-04-07T08:16:33;5.30;;;3.83;;
42226;SDS011;27892;52.378;13.122;2023-04-07T08:18:59;4.70;;;3.53;;
42226;SDS011;27892;52.378;13.122;2023-04-07T08:21:25;7.00;;;4.70;;
42226;SDS011;27892;52.378;13.122;2023-04-07T08:23:54;5.73;;;4.37;;
42226;SDS011;27892;52.378;13.122;2023-04-07T08:26:21;6.13;;;3.97;;
42226;SDS011;27892;52.378;13.122;2023-04-07T08:28:52;5.50;;;4.27;;
42226;SDS011;27892;52.378;13.122;2023-04-07T08:31:18;5.17;;;4.07;;
42226;SDS011;27892;52.378;13.122;2023-04-07T08:33:44;5.37;;;4.50;;
42226;SDS011;27892;52.378;13.122;2023-04-07T08:36:10;5.53;;;4.10;;
42226;SDS011;27892;52.378;13.122;2023-04-07T08:38:36;4.43;;;3.43;;
42226;SDS011;27892;52.378;13.122;2023-04-07T08:41:06;6.17;;;4.73;;
42226;SDS011;27892;52.378;13.122;2023-04-07T08:43:34;5.77;;;4.80;;
42226;SDS011;27892;52.378;13.122;2023-04-07T08:46:02;8.23;;;5.50;;
42226;SDS011;27892;52.378;13.122;2023-04-07T08:48:28;7.80;;;5.07;;
42226;SDS011;27892;52.378;13.122;2023-04-07T08:50:59;6.80;;;5.53;;
42226;SDS011;27892;52.378;13.122;2023-04-07T08:53:35;6.47;;;4.90;;
42226;SDS011;27892;52.378;13.122;2023-04-07T08:56:08;6.53;;;5.10;;
42226;SDS011;27892;52.378;13.122;2023-04-07T08:58:35;5.53;;;4.70;;
42226;SDS011;27892;52.378;13.122;2023-04-07T09:01:05;7.77;;;5.07;;
42226;SDS011;27892;52.378;13.122;2023-04-07T09:03:32;6.20;;;4.77;;
42226;SDS011;27892;52.378;13.122;2023-04-07T09:06:01;5.53;;;4.50;;
42226;SDS011;27892;52.378;13.122;2023-04-07T09:08:27;5.73;;;4.10;;
42226;SDS011;27892;52.378;13.122;2023-04-07T09:10:53;4.40;;;4.00;;
42226;SDS011;27892;52.378;13.122;2023-04-07T09:13:21;4.57;;;3.63;;
42226;SDS011;27892;52.378;13.122;2023-04-07T09:15:48;5.47;;;3.97;;
42226;SDS011;27892;52.378;13.122;2023-04-07T09:18:15;5.43;;;4.13;;
42226;SDS011;27892;52.378;13.122;2023-04-07T09:20:54;4.83;;;3.83;;
42226;SDS011;27892;52.378;13.122;2023-04-07T09:25:56;6.37;;;3.87;;
42226;SDS011;27892;52.378;13.122;2023-04-07T09:28:46;4.60;;;3.50;;
42226;SDS011;27892;52.378;13.122;2023-04-07T09:31:14;4.90;;;3.67;;
42226;SDS011;27892;52.378;13.122;2023-04-07T09:33:40;5.23;;;3.73;;
42226;SDS011;27892;52.378;13.122;2023-04-07T09:36:06;7.10;;;4.20;;
42226;SDS011;27892;52.378;13.122;2023-04-07T09:38:36;4.43;;;3.47;;
42226;SDS011;27892;52.378;13.122;2023-04-07T09:43:42;5.07;;;3.73;;
42226;SDS011;27892;52.378;13.122;2023-04-07T09:46:16;4.43;;;3.33;;
42226;SDS011;27892;52.378;13.122;2023-04-07T09:48:43;6.93;;;4.30;;
42226;SDS011;27892;52.378;13.122;2023-04-07T09:53:44;5.07;;;4.30;;
42226;SDS011;27892;52.378;13.122;2023-04-07T09:56:18;4.90;;;4.00;;
42226;SDS011;27892;52.378;13.122;2023-04-07T09:58:46;3.93;;;2.97;;
42226;SDS011;27892;52.378;13.122;2023-04-07T10:01:16;5.07;;;3.97;;
42226;SDS011;27892;52.378;13.122;2023-04-07T10:03:44;6.07;;;4.07;;
42226;SDS011;27892;52.378;13.122;2023-04-07T10:06:11;6.50;;;3.90;;
42226;SDS011;27892;52.378;13.122;2023-04-07T10:08:38;5.03;;;3.50;;
42226;SDS011;27892;52.378;13.122;2023-04-07T10:11:06;4.23;;;3.80;;
42226;SDS011;27892;52.378;13.122;2023-04-07T10:13:34;5.07;;;3.50;;
42226;SDS011;27892;52.378;13.122;2023-04-07T10:16:04;6.20;;;4.37;;
42226;SDS011;27892;52.378;13.122;2023-04-07T10:18:32;4.27;;;3.10;;
42226;SDS011;27892;52.378;13.122;2023-04-07T10:21:00;5.07;;;3.40;;
42226;SDS011;27892;52.378;13.122;2023-04-07T10:26:04;5.27;;;3.60;;
42226;SDS011;27892;52.378;13.122;2023-04-07T10:28:31;4.33;;;3.50;;
42226;SDS011;27892;52.378;13.122;2023-04-07T10:30:59;4.13;;;3.30;;
42226;SDS011;27892;52.378;13.122;2023-04-07T10:36:11;4.20;;;3.40;;
42226;SDS011;27892;52.378;13.122;2023-04-07T10:38:37;3.70;;;2.70;;
42226;SDS011;27892;52.378;13.122;2023-04-07T10:41:45;4.33;;;3.37;;
42226;SDS011;27892;52.378;13.122;2023-04-07T10:44:01;4.97;;;3.73;;
42226;SDS011;27892;52.378;13.122;2023-04-07T10:49:10;5.67;;;3.67;;
42226;SDS011;27892;52.378;13.122;2023-04-07T10:51:40;3.73;;;2.73;;
42226;SDS011;27892;52.378;13.122;2023-04-07T10:54:16;4.07;;;3.40;;
42226;SDS011;27892;52.378;13.122;2023-04-07T10:59:31;4.00;;;3.37;;
42226;SDS011;27892;52.378;13.122;2023-04-07T11:04:40;5.03;;;3.60;;
42226;SDS011;27892;52.378;13.122;2023-04-07T11:07:07;3.37;;;3.03;;
42226;SDS011;27892;52.378;13.122;2023-04-07T11:09:34;3.23;;;2.90;;
42226;SDS011;27892;52.378;13.122;2023-04-07T11:12:00;3.27;;;2.60;;
42226;SDS011;27892;52.378;13.122;2023-04-07T11:14:30;3.30;;;2.90;;
42226;SDS011;27892;52.378;13.122;2023-04-07T11:17:07;3.17;;;2.83;;
42226;SDS011;27892;52.378;13.122;2023-04-07T11:20:17;3.07;;;2.77;;
42226;SDS011;27892;52.378;13.122;2023-04-07T11:22:42;4.13;;;2.80;;
42226;SDS011;27892;52.378;13.122;2023-04-07T11:25:23;3.90;;;3.50;;
42226;SDS011;27892;52.378;13.122;2023-04-07T11:27:51;3.27;;;2.60;;
42226;SDS011;27892;52.378;13.122;2023-04-07T11:30:17;3.50;;;2.70;;
42226;SDS011;27892;52.378;13.122;2023-04-07T11:32:46;2.60;;;2.40;;
42226;SDS011;27892;52.378;13.122;2023-04-07T11:35:13;2.40;;;2.20;;
42226;SDS011;27892;52.378;13.122;2023-04-07T11:37:40;2.73;;;2.40;;
42226;SDS011;27892;52.378;13.122;2023-04-07T11:40:06;3.60;;;2.50;;
42226;SDS011;27892;52.378;13.122;2023-04-07T11:42:33;2.40;;;2.20;;
42226;SDS011;27892;52.378;13.122;2023-04-07T11:45:00;2.50;;;2.30;;
42226;SDS011;27892;52.378;13.122;2023-04-07T11:47:35;3.53;;;2.77;;
42226;SDS011;27892;52.378;13.122;2023-04-07T11:50:02;2.40;;;2.20;;
42226;SDS011;27892;52.378;13.122;2023-04-07T11:52:28;2.47;;;2.27;;
42226;SDS011;27892;52.378;13.122;2023-04-07T11:55:04;3.57;;;2.27;;
42226;SDS011;27892;52.378;13.122;2023-04-07T11:57:31;2.77;;;2.47;;
42226;SDS011;27892;52.378;13.122;2023-04-07T12:00:09;4.27;;;2.90;;
42226;SDS011;27892;52.378;13.122;2023-04-07T12:02:36;2.77;;;2.40;;
42226;SDS011;27892;52.378;13.122;2023-04-07T12:05:03;2.83;;;2.60;;
42226;SDS011;27892;52.378;13.122;2023-04-07T12:07:29;2.83;;;2.60;;
42226;SDS011;27892;52.378;13.122;2023-04-07T12:09:55;3.27;;;2.53;;
42226;SDS011;27892;52.378;13.122;2023-04-07T12:12:24;2.93;;;2.40;;
42226;SDS011;27892;52.378;13.122;2023-04-07T12:14:51;3.00;;;2.67;;
42226;SDS011;27892;52.378;13.122;2023-04-07T12:17:20;4.03;;;2.87;;
42226;SDS011;27892;52.378;13.122;2023-04-07T12:19:47;3.10;;;2.80;;
42226;SDS011;27892;52.378;13.122;2023-04-07T12:22:12;3.33;;;2.97;;
42226;SDS011;27892;52.378;13.122;2023-04-07T12:24:38;3.20;;;2.90;;
42226;SDS011;27892;52.378;13.122;2023-04-07T12:27:04;4.90;;;3.47;;
42226;SDS011;27892;52.378;13.122;2023-04-07T12:29:29;3.57;;;2.83;;
42226;SDS011;27892;52.378;13.122;2023-04-07T12:31:55;3.77;;;3.10;;
42226;SDS011;27892;52.378;13.122;2023-04-07T12:34:21;5.03;;;4.00;;
42226;SDS011;27892;52.378;13.122;2023-04-07T12:36:47;4.20;;;3.43;;
42226;SDS011;27892;52.378;13.122;2023-04-07T12:39:13;3.10;;;2.80;;
42226;SDS011;27892;52.378;13.122;2023-04-07T12:41:40;3.17;;;2.80;;
42226;SDS011;27892;52.378;13.122;2023-04-07T12:44:06;3.90;;;3.13;;
42226;SDS011;27892;52.378;13.122;2023-04-07T12:46:32;3.70;;;3.10;;
42226;SDS011;27892;52.378;13.122;2023-04-07T12:48:57;6.37;;;4.03;;
42226;SDS011;27892;52.378;13.122;2023-04-07T12:51:23;6.57;;;3.97;;
42226;SDS011;27892;52.378;13.122;2023-04-07T12:53:50;5.83;;;3.57;;
42226;SDS011;27892;52.378;13.122;2023-04-07T12:56:15;6.47;;;4.33;;
42226;SDS011;27892;52.378;13.122;2023-04-07T12:58:41;4.43;;;3.67;;
42226;SDS011;27892;52.378;13.122;2023-04-07T13:01:07;6.27;;;4.80;;
42226;SDS011;27892;52.378;13.122;2023-04-07T13:03:33;6.20;;;4.90;;
42226;SDS011;27892;52.378;13.122;2023-04-07T13:05:59;4.40;;;3.83;;
42226;SDS011;27892;52.378;13.122;2023-04-07T13:08:28;5.00;;;3.73;;
42226;SDS011;27892;52.378;13.122;2023-04-07T13:10:55;4.80;;;4.20;;
42226;SDS011;27892;52.378;13.122;2023-04-07T13:13:21;4.00;;;3.67;;
42226;SDS011;27892;52.378;13.122;2023-04-07T13:15:47;4.40;;;3.80;;
42226;SDS011;27892;52.378;13.122;2023-04-07T13:18:13;4.10;;;3.80;;
42226;SDS011;27892;52.378;13.122;2023-04-07T13:20:39;5.50;;;4.47;;
42226;SDS011;27892;52.378;13.122;2023-04-07T13:23:05;5.10;;;4.60;;
42226;SDS011;27892;52.378;13.122;2023-04-07T13:25:30;3.90;;;3.60;;
42226;SDS011;27892;52.378;13.122;2023-04-07T13:27:56;4.23;;;3.83;;
42226;SDS011;27892;52.378;13.122;2023-04-07T13:30:24;3.53;;;3.23;;
42226;SDS011;27892;52.378;13.122;2023-04-07T13:32:50;4.30;;;3.90;;
42226;SDS011;27892;52.378;13.122;2023-04-07T13:35:16;4.57;;;3.97;;
42226;SDS011;27892;52.378;13.122;2023-04-07T13:37:42;4.20;;;3.80;;
42226;SDS011;27892;52.378;13.122;2023-04-07T13:40:10;6.00;;;5.13;;
42226;SDS011;27892;52.378;13.122;2023-04-07T13:42:37;9.70;;;7.27;;
42226;SDS011;27892;52.378;13.122;2023-04-07T13:45:03;5.30;;;4.60;;
42226;SDS011;27892;52.378;13.122;2023-04-07T13:47:30;4.37;;;3.97;;
42226;SDS011;27892;52.378;13.122;2023-04-07T13:50:02;3.40;;;3.10;;
42226;SDS011;27892;52.378;13.122;2023-04-07T13:52:28;4.43;;;3.30;;
42226;SDS011;27892;52.378;13.122;2023-04-07T13:54:54;3.40;;;3.10;;
42226;SDS011;27892;52.378;13.122;2023-04-07T13:57:21;2.80;;;2.60;;
42226;SDS011;27892;52.378;13.122;2023-04-07T13:59:48;2.50;;;2.40;;
42226;SDS011;27892;52.378;13.122;2023-04-07T14:02:18;2.57;;;2.40;;
42226;SDS011;27892;52.378;13.122;2023-04-07T14:04:44;2.93;;;2.73;;
42226;SDS011;27892;52.378;13.122;2023-04-07T14:07:10;2.90;;;2.70;;
42226;SDS011;27892;52.378;13.122;2023-04-07T14:09:36;3.07;;;2.80;;
42226;SDS011;27892;52.378;13.122;2023-04-07T14:12:02;2.90;;;2.70;;
42226;SDS011;27892;52.378;13.122;2023-04-07T14:14:28;2.90;;;2.70;;
42226;SDS011;27892;52.378;13.122;2023-04-07T14:16:54;2.90;;;2.70;;
42226;SDS011;27892;52.378;13.122;2023-04-07T14:19:22;2.90;;;2.70;;
42226;SDS011;27892;52.378;13.122;2023-04-07T14:21:48;4.50;;;4.10;;
42226;SDS011;27892;52.378;13.122;2023-04-07T14:24:15;3.20;;;3.00;;
42226;SDS011;27892;52.378;13.122;2023-04-07T14:26:44;3.20;;;2.90;;
42226;SDS011;27892;52.378;13.122;2023-04-07T14:29:13;3.00;;;2.80;;
42226;SDS011;27892;52.378;13.122;2023-04-07T14:31:39;3.20;;;2.97;;
42226;SDS011;27892;52.378;13.122;2023-04-07T14:34:05;3.23;;;2.93;;
42226;SDS011;27892;52.378;13.122;2023-04-07T14:36:33;2.80;;;2.60;;
42226;SDS011;27892;52.378;13.122;2023-04-07T14:38:59;2.90;;;2.70;;
42226;SDS011;27892;52.378;13.122;2023-04-07T14:41:26;3.30;;;2.93;;
42226;SDS011;27892;52.378;13.122;2023-04-07T14:43:52;3.37;;;3.07;;
42226;SDS011;27892;52.378;13.122;2023-04-07T14:46:21;3.20;;;2.90;;
42226;SDS011;27892;52.378;13.122;2023-04-07T14:48:48;2.80;;;2.60;;
42226;SDS011;27892;52.378;13.122;2023-04-07T14:51:16;2.60;;;2.40;;
42226;SDS011;27892;52.378;13.122;2023-04-07T14:53:43;3.30;;;3.07;;
42226;SDS011;27892;52.378;13.122;2023-04-07T14:56:10;3.37;;;3.17;;
42226;SDS011;27892;52.378;13.122;2023-04-07T14:58:36;3.80;;;3.50;;
42226;SDS011;27892;52.378;13.122;2023-04-07T15:01:17;4.00;;;3.60;;
42226;SDS011;27892;52.378;13.122;2023-04-07T15:04:59;3.10;;;2.90;;
42226;SDS011;27892;52.378;13.122;2023-04-07T15:08:21;3.37;;;3.07;;